Time;durP1;ratioP1;P1;durP2;ratioP2;P2;SDS_P1;SDS_P2;PMS_P1;PMS_P2;Temp;Humidity;BMP_temperature;BMP_pressure;BME280_temperature;BME280_humidity;BME280_pressure;Samples;Min_cycle;Max_cycle;Signal;HPM_P1;HPM_P2
2022/10/22 00:01:49;;;;;;;1.30;1.20;;;;;;;;;;6044631;23;20019;-89
2022/10/22 00:04:27;;;;;;;3.75;1.33;;;;;;;;;;6067060;23;20026;-89
2022/10/22 00:07:05;;;;;;;1.33;1.00;;;;;;;;;;6059461;23;20434;-89
2022/10/22 00:13:53;;;;;;;1.80;1.17;;;;;;;;;;6066627;23;20029;-88
2022/10/22 00:16:27;;;;;;;6.60;1.83;;;;;;;;;;6066621;23;20391;-88
2022/10/22 00:18:59;;;;;;;5.78;3.13;;;;;;;;;;6066187;23;20026;-89
2022/10/22 00:21:44;;;;;;;5.43;2.63;;;;;;;;;;6067949;23;20327;-89
2022/10/22 00:24:28;;;;;;;6.38;1.50;;;;;;;;;;5977956;23;20023;-89
2022/10/22 00:27:00;;;;;;;3.08;1.75;;;;;;;;;;6013735;23;20131;-88
2022/10/22 00:29:51;;;;;;;;;;;;;;;;;;;;;
2022/10/22 00:32:53;;;;;;;0.98;0.80;;;;;;;;;;5973924;23;20463;-88
2022/10/22 00:35:34;;;;;;;1.00;0.98;;;;;;;;;;5977840;23;20479;-89
2022/10/22 00:38:14;;;;;;;2.05;1.08;;;;;;;;;;6015736;23;20034;-89
2022/10/22 00:45:29;;;;;;;3.20;2.40;;;;;;;;;;6032169;23;20131;-89
2022/10/22 00:52:07;;;;;;;;;;;;;;;;;;;;;
2022/10/22 01:44:49;;;;;;;;;;;;;;;;;;;;;
2022/10/22 02:14:06;;;;;;;2.08;1.67;;;;;;;;;;6085026;23;20022;-86
2022/10/22 02:17:45;;;;;;;1.48;1.38;;;;;;;;;;6034858;23;20023;-86
2022/10/22 02:20:42;;;;;;;0.90;0.90;;;;;;;;;;5961170;23;20026;-87
2022/10/22 02:24:15;;;;;;;;;;;;;;;;;;;;;
2022/10/22 02:27:25;;;;;;;1.58;1.05;;;;;;;;;;6065491;23;20037;-84
2022/10/22 02:30:02;;;;;;;2.50;1.10;;;;;;;;;;6137361;23;20017;-85
2022/10/22 02:32:58;;;;;;;1.05;0.98;;;;;;;;;;6138276;23;20021;-85
2022/10/22 02:35:29;;;;;;;1.45;1.30;;;;;;;;;;6123105;23;20036;-84
2022/10/22 02:38:04;;;;;;;1.05;1.05;;;;;;;;;;6076901;23;20338;-85
2022/10/22 02:40:41;;;;;;;0.90;0.90;;;;;;;;;;6137297;23;20018;-84
2022/10/22 02:43:11;;;;;;;1.45;0.82;;;;;;;;;;6090572;23;20034;-85
2022/10/22 02:45:39;;;;;;;1.05;0.95;;;;;;;;;;6077934;23;20014;-84
2022/10/22 02:48:17;;;;;;;3.78;2.63;;;;;;;;;;6036082;23;20359;-85
2022/10/22 02:50:56;;;;;;;1.77;1.67;;;;;;;;;;5990029;23;20034;-85
2022/10/22 02:53:59;;;;;;;1.50;1.00;;;;;;;;;;6004917;23;20015;-84
2022/10/22 02:56:34;;;;;;;0.70;0.70;;;;;;;;;;6041121;23;20027;-84
2022/10/22 02:59:06;;;;;;;4.63;1.25;;;;;;;;;;6017634;23;20015;-85
2022/10/22 03:01:34;;;;;;;1.85;0.95;;;;;;;;;;6005636;23;20018;-84
2022/10/22 03:04:05;;;;;;;1.60;0.90;;;;;;;;;;6053839;23;20026;-84
2022/10/22 03:06:33;;;;;;;7.75;2.17;;;;;;;;;;6038245;23;20473;-84
2022/10/22 03:09:01;;;;;;;6.30;1.40;;;;;;;;;;6017938;23;20023;-84
2022/10/22 03:11:28;;;;;;;2.78;0.85;;;;;;;;;;6041374;23;20026;-84
2022/10/22 03:13:56;;;;;;;0.60;0.60;;;;;;;;;;6071714;23;20090;-84
2022/10/22 03:16:24;;;;;;;3.28;0.90;;;;;;;;;;6018001;23;20074;-84
2022/10/22 03:18:52;;;;;;;1.23;0.82;;;;;;;;;;6037703;23;20468;-84
2022/10/22 03:21:40;;;;;;;2.22;0.95;;;;;;;;;;6140581;23;20010;-85
2022/10/22 03:24:20;;;;;;;1.60;1.13;;;;;;;;;;6130964;23;20025;-85
2022/10/22 03:27:31;;;;;;;2.05;1.58;;;;;;;;;;6103925;23;20036;-84
2022/10/22 03:29:59;;;;;;;1.10;0.82;;;;;;;;;;6140288;23;20020;-84
2022/10/22 03:32:27;;;;;;;1.98;1.38;;;;;;;;;;6081091;23;20463;-92
2022/10/22 03:34:54;;;;;;;0.90;0.80;;;;;;;;;;6161257;23;20449;-86
2022/10/22 03:37:23;;;;;;;2.00;1.48;;;;;;;;;;6164170;23;20024;-84
2022/10/22 03:39:51;;;;;;;4.40;1.50;;;;;;;;;;6142931;23;20049;-85
2022/10/22 03:42:19;;;;;;;0.95;0.90;;;;;;;;;;6080273;23;20864;-85
2022/10/22 03:44:47;;;;;;;4.00;0.90;;;;;;;;;;6164824;23;20010;-84
2022/10/22 03:47:15;;;;;;;2.78;1.20;;;;;;;;;;6159138;23;20017;-84
2022/10/22 03:49:43;;;;;;;1.05;1.00;;;;;;;;;;6165942;23;20021;-85
2022/10/22 03:52:12;;;;;;;1.50;1.40;;;;;;;;;;6104837;23;20025;-84
2022/10/22 03:54:51;;;;;;;4.15;1.15;;;;;;;;;;6136778;23;20018;-85
2022/10/22 03:57:19;;;;;;;1.25;0.90;;;;;;;;;;6139220;23;20010;-84
2022/10/22 03:59:47;;;;;;;4.30;1.55;;;;;;;;;;6131669;23;20350;-84
2022/10/22 04:02:15;;;;;;;2.35;1.13;;;;;;;;;;6105438;23;20013;-84
2022/10/22 04:04:42;;;;;;;2.13;0.90;;;;;;;;;;6164667;23;20017;-84
2022/10/22 04:07:13;;;;;;;0.80;0.80;;;;;;;;;;6104489;23;20025;-84
2022/10/22 04:09:41;;;;;;;1.40;0.93;;;;;;;;;;6139819;23;20253;-88
2022/10/22 04:12:09;;;;;;;3.20;1.33;;;;;;;;;;6129089;23;20022;-88
2022/10/22 04:14:37;;;;;;;5.03;1.48;;;;;;;;;;6159572;23;20449;-88
2022/10/22 04:17:04;;;;;;;1.83;1.23;;;;;;;;;;6105179;23;20480;-88
2022/10/22 04:19:32;;;;;;;0.52;0.52;;;;;;;;;;6132854;23;20025;-88
2022/10/22 04:22:00;;;;;;;1.90;0.77;;;;;;;;;;6164938;23;20014;-89
2022/10/22 04:25:03;;;;;;;1.48;1.25;;;;;;;;;;6140561;23;20009;-88
2022/10/22 04:27:34;;;;;;;2.95;1.50;;;;;;;;;;6104182;23;20022;-88
2022/10/22 04:30:03;;;;;;;1.35;0.80;;;;;;;;;;6128356;23;20018;-87
2022/10/22 04:32:31;;;;;;;1.38;1.27;;;;;;;;;;6139639;23;20009;-88
2022/10/22 04:34:58;;;;;;;2.00;1.83;;;;;;;;;;6160896;23;20033;-88
2022/10/22 04:37:26;;;;;;;3.83;1.00;;;;;;;;;;6165122;23;20452;-87
2022/10/22 04:39:54;;;;;;;36.33;3.53;;;;;;;;;;6157493;23;20036;-89
2022/10/22 04:42:25;;;;;;;1.13;0.80;;;;;;;;;;6162913;23;20342;-88
2022/10/22 04:44:52;;;;;;;1.35;1.00;;;;;;;;;;6105187;23;20057;-87
2022/10/22 04:47:20;;;;;;;1.40;1.02;;;;;;;;;;6128889;23;20342;-88
2022/10/22 04:49:48;;;;;;;2.47;1.30;;;;;;;;;;6165865;23;20017;-89
2022/10/22 04:52:16;;;;;;;1.75;1.33;;;;;;;;;;6130336;23;20018;-90
2022/10/22 04:54:43;;;;;;;1.33;1.23;;;;;;;;;;6104887;23;20018;-89
2022/10/22 04:57:13;;;;;;;1.33;1.23;;;;;;;;;;6138957;23;20028;-88
2022/10/22 04:59:43;;;;;;;0.70;0.70;;;;;;;;;;6157980;23;20036;-90
2022/10/22 05:02:11;;;;;;;0.70;0.70;;;;;;;;;;6128816;23;20032;-88
2022/10/22 05:04:38;;;;;;;3.90;0.88;;;;;;;;;;6129701;23;20022;-87
2022/10/22 05:07:06;;;;;;;0.80;0.80;;;;;;;;;;6160160;23;20014;-88
2022/10/22 05:09:34;;;;;;;2.05;0.77;;;;;;;;;;6105263;23;20028;-87
2022/10/22 05:12:02;;;;;;;0.85;0.85;;;;;;;;;;6155914;23;20330;-87
2022/10/22 05:14:29;;;;;;;0.80;0.60;;;;;;;;;;6158170;23;20040;-87
2022/10/22 05:16:57;;;;;;;0.75;0.68;;;;;;;;;;6139135;23;20618;-87
2022/10/22 05:19:29;;;;;;;0.93;0.82;;;;;;;;;;6157760;23;20457;-87
2022/10/22 05:21:59;;;;;;;0.57;0.57;;;;;;;;;;6165402;23;20018;-88
2022/10/22 05:27:17;;;;;;;1.48;0.65;;;;;;;;;;6133377;23;20333;-88
2022/10/22 05:29:45;;;;;;;7.57;0.75;;;;;;;;;;6139551;23;20021;-88
2022/10/22 05:32:13;;;;;;;0.68;0.50;;;;;;;;;;6130082;23;20345;-87
2022/10/22 05:34:41;;;;;;;0.63;0.63;;;;;;;;;;6136188;23;20017;-88
2022/10/22 05:37:09;;;;;;;0.50;0.50;;;;;;;;;;6138993;23;20020;-89
2022/10/22 05:39:39;;;;;;;2.08;1.25;;;;;;;;;;6104957;23;20021;-88
2022/10/22 05:42:06;;;;;;;1.30;1.10;;;;;;;;;;6103889;23;20444;-88
2022/10/22 05:44:34;;;;;;;0.75;0.75;;;;;;;;;;6129517;23;20048;-88
2022/10/22 05:47:02;;;;;;;2.22;0.77;;;;;;;;;;6128445;23;20341;-88
2022/10/22 05:49:30;;;;;;;3.75;1.05;;;;;;;;;;6129196;23;20018;-90
2022/10/22 05:51:58;;;;;;;0.90;0.90;;;;;;;;;;6128647;23;20654;-90
2022/10/22 05:54:26;;;;;;;2.03;0.90;;;;;;;;;;6129290;23;20428;-89
2022/10/22 05:57:04;;;;;;;0.55;0.55;;;;;;;;;;6104820;23;20032;-88
2022/10/22 05:59:35;;;;;;;1.80;0.60;;;;;;;;;;6104527;23;20022;-90
2022/10/22 06:02:05;;;;;;;0.70;0.70;;;;;;;;;;6128117;23;20017;-89
2022/10/22 06:04:42;;;;;;;1.63;0.70;;;;;;;;;;6164408;23;20010;-91
2022/10/22 06:07:15;;;;;;;0.45;0.45;;;;;;;;;;6104169;23;20032;-90
2022/10/22 06:09:43;;;;;;;0.50;0.50;;;;;;;;;;6105330;23;20493;-90
2022/10/22 06:12:28;;;;;;;0.60;0.60;;;;;;;;;;6130029;23;20044;-90
2022/10/22 06:14:58;;;;;;;3.13;0.50;;;;;;;;;;6131377;23;20033;-88
2022/10/22 06:17:34;;;;;;;0.55;0.55;;;;;;;;;;6108115;23;20025;-90
2022/10/22 06:20:20;;;;;;;1.95;1.85;;;;;;;;;;6105999;23;20468;-91
2022/10/22 06:22:48;;;;;;;0.40;0.40;;;;;;;;;;6106403;23;20022;-90
2022/10/22 06:25:19;;;;;;;0.55;0.52;;;;;;;;;;6132056;23;20021;-89
2022/10/22 06:27:51;;;;;;;0.60;0.60;;;;;;;;;;6129373;23;20032;-90
2022/10/22 06:30:19;;;;;;;;;;;;;;;;;;6106309;23;20024;-90
2022/10/22 06:32:47;;;;;;;0.50;0.50;;;;;;;;;;6107858;23;20318;-90
2022/10/22 06:35:48;;;;;;;0.40;0.40;;;;;;;;;;6133650;23;20022;-93
2022/10/22 06:38:54;;;;;;;0.50;0.50;;;;;;;;;;6155396;23;20433;-89
2022/10/22 06:41:27;;;;;;;1.42;1.25;;;;;;;;;;6131659;23;20032;-90
2022/10/22 06:43:57;;;;;;;0.40;0.40;;;;;;;;;;6105880;23;20032;-90
2022/10/22 06:46:26;;;;;;;0.50;0.50;;;;;;;;;;6128947;23;20022;-91
2022/10/22 06:48:57;;;;;;;0.43;0.43;;;;;;;;;;6106352;23;20017;-88
2022/10/22 06:51:26;;;;;;;0.40;0.40;;;;;;;;;;6129191;23;20026;-89
2022/10/22 06:53:55;;;;;;;0.50;0.40;;;;;;;;;;6106901;23;20460;-89
2022/10/22 06:56:30;;;;;;;0.40;0.40;;;;;;;;;;6129413;23;20021;-89
2022/10/22 06:59:00;;;;;;;0.30;0.30;;;;;;;;;;6130309;23;20021;-89
2022/10/22 07:01:34;;;;;;;0.40;0.40;;;;;;;;;;6165472;23;20017;-89
2022/10/22 07:04:10;;;;;;;0.40;0.40;;;;;;;;;;6104838;23;20025;-90
2022/10/22 07:06:44;;;;;;;0.60;0.50;;;;;;;;;;6115097;23;20022;-91
2022/10/22 07:09:16;;;;;;;0.80;0.80;;;;;;;;;;6106465;23;20017;-90
2022/10/22 07:11:48;;;;;;;0.63;0.63;;;;;;;;;;6093297;23;20030;-90
2022/10/22 07:14:19;;;;;;;2.47;0.57;;;;;;;;;;6129601;23;20048;-90
2022/10/22 07:16:56;;;;;;;0.60;0.60;;;;;;;;;;6141822;23;20014;-90
2022/10/22 07:19:36;;;;;;;1.33;1.23;;;;;;;;;;6134484;23;20028;-90
2022/10/22 07:22:09;;;;;;;1.25;1.00;;;;;;;;;;6092535;23;20357;-90
2022/10/22 07:25:25;;;;;;;0.60;0.60;;;;;;;;;;6107200;23;20025;-90
2022/10/22 07:28:10;;;;;;;7.43;0.88;;;;;;;;;;6106029;23;20018;-90
2022/10/22 07:30:50;;;;;;;3.05;1.25;;;;;;;;;;6105745;23;20433;-90
2022/10/22 07:33:29;;;;;;;1.20;1.10;;;;;;;;;;6130907;23;20014;-90
2022/10/22 07:36:03;;;;;;;1.13;0.90;;;;;;;;;;6130094;23;20025;-90
2022/10/22 07:38:31;;;;;;;0.60;0.60;;;;;;;;;;6105686;23;20018;-90
2022/10/22 07:41:01;;;;;;;2.20;0.95;;;;;;;;;;6129598;23;20032;-90
2022/10/22 07:43:37;;;;;;;3.83;0.70;;;;;;;;;;6105894;23;20022;-90
2022/10/22 07:46:28;;;;;;;0.30;0.30;;;;;;;;;;6106093;23;20329;-91
2022/10/22 07:49:14;;;;;;;0.63;0.63;;;;;;;;;;6110383;23;20017;-90
2022/10/22 07:51:56;;;;;;;0.75;0.70;;;;;;;;;;6127693;23;20037;-86
2022/10/22 07:54:32;;;;;;;0.70;0.70;;;;;;;;;;6113578;23;20029;-85
2022/10/22 07:57:15;;;;;;;1.15;0.90;;;;;;;;;;6105381;23;20044;-85
2022/10/22 07:59:55;;;;;;;0.75;0.60;;;;;;;;;;6092156;23;20029;-86
2022/10/22 08:02:48;;;;;;;0.50;0.50;;;;;;;;;;6115709;23;20023;-86
2022/10/22 08:05:43;;;;;;;1.45;1.02;;;;;;;;;;6008337;23;20026;-91
2022/10/22 08:08:18;;;;;;;;;;;;;;;;;;6019345;23;20458;-92
2022/10/22 08:11:44;;;;;;;0.70;0.70;;;;;;;;;;6004132;23;19918;-91
2022/10/22 08:14:59;;;;;;;1.85;0.70;;;;;;;;;;5936387;23;20024;-92
2022/10/22 08:28:30;;;;;;;0.50;0.50;;;;;;;;;;6104932;23;20354;-89
2022/10/22 08:34:51;;;;;;;;;;;;;;;;;;;;;
2022/10/22 10:08:15;;;;;;;1.95;0.57;;;;;;;;;;6100506;23;20037;-91
2022/10/22 10:57:19;;;;;;;1.55;0.70;;;;;;;;;;6033607;23;20015;-86
2022/10/22 11:00:10;;;;;;;1.90;0.60;;;;;;;;;;6004291;23;20028;-87
2022/10/22 11:03:00;;;;;;;0.70;0.70;;;;;;;;;;6044995;23;20027;-88
2022/10/22 11:05:31;;;;;;;1.60;1.48;;;;;;;;;;6038883;23;20448;-87
2022/10/22 11:08:54;;;;;;;;;;;;;;;;;;;;;
2022/10/22 11:12:26;;;;;;;1.25;1.15;;;;;;;;;;6042527;23;20675;-89
2022/10/22 11:15:13;;;;;;;0.70;0.65;;;;;;;;;;6005267;23;20019;-88
2022/10/22 11:17:45;;;;;;;0.57;0.57;;;;;;;;;;5968790;23;20020;-90
2022/10/22 11:24:34;;;;;;;0.45;0.45;;;;;;;;;;6016820;23;20038;-85
2022/10/22 11:27:04;;;;;;;1.08;0.50;;;;;;;;;;5982301;23;20034;-88
2022/10/22 11:29:39;;;;;;;0.43;0.40;;;;;;;;;;6053534;23;20018;-86
2022/10/22 11:32:12;;;;;;;0.50;0.50;;;;;;;;;;6020875;23;20023;-87
2022/10/22 11:34:44;;;;;;;0.40;0.40;;;;;;;;;;6050036;23;20046;-87
2022/10/22 11:37:17;;;;;;;1.15;0.43;;;;;;;;;;5997064;23;20070;-87
2022/10/22 11:40:02;;;;;;;0.50;0.50;;;;;;;;;;6021155;23;20635;-87
2022/10/22 11:42:34;;;;;;;0.60;0.55;;;;;;;;;;6040147;23;20026;-87
2022/10/22 11:45:27;;;;;;;0.40;0.40;;;;;;;;;;6029437;23;20044;-88
2022/10/22 11:48:11;;;;;;;0.57;0.57;;;;;;;;;;6045068;23;20054;-86
2022/10/22 11:50:47;;;;;;;0.68;0.68;;;;;;;;;;6074561;23;20018;-87
2022/10/22 11:53:31;;;;;;;0.57;0.40;;;;;;;;;;6044054;23;20026;-89
2022/10/22 11:56:32;;;;;;;1.35;1.25;;;;;;;;;;6007068;23;20431;-88
2022/10/22 11:59:17;;;;;;;7.05;0.80;;;;;;;;;;6046995;23;20022;-89
2022/10/22 12:08:13;;;;;;;1.02;0.85;;;;;;;;;;5919794;24;20029;-89
2022/10/22 12:11:46;;;;;;;0.77;0.77;;;;;;;;;;5929214;23;20036;-87
2022/10/22 12:14:49;;;;;;;;;;;;;;;;;;;;;
2022/10/22 12:17:53;;;;;;;2.88;1.10;;;;;;;;;;5999578;23;20024;-89
2022/10/22 12:22:09;;;;;;;2.15;1.55;;;;;;;;;;5962622;23;20034;-89
2022/10/22 12:28:40;;;;;;;2.80;1.05;;;;;;;;;;5881730;24;20026;-87
2022/10/22 12:31:25;;;;;;;1.77;1.33;;;;;;;;;;5896948;24;20628;-90
2022/10/22 12:34:21;;;;;;;1.85;1.25;;;;;;;;;;5896701;24;20025;-89
2022/10/22 12:36:50;;;;;;;2.15;0.90;;;;;;;;;;6016803;23;20035;-87
2022/10/22 12:39:20;;;;;;;2.25;1.92;;;;;;;;;;6050322;23;20030;-89
2022/10/22 12:41:48;;;;;;;2.33;0.83;;;;;;;;;;6092654;23;20034;-88
2022/10/22 12:44:24;;;;;;;7.30;0.93;;;;;;;;;;6094233;23;20346;-89
2022/10/22 12:46:52;;;;;;;3.97;2.47;;;;;;;;;;6099576;23;20023;-87
2022/10/22 12:53:51;;;;;;;3.13;1.10;;;;;;;;;;6060645;23;20026;-88
2022/10/22 12:57:21;;;;;;;1.20;1.02;;;;;;;;;;6072145;23;20038;-89
2022/10/22 13:00:09;;;;;;;;;;;;;;;;;;;;;
2022/10/22 13:02:44;;;;;;;1.40;1.30;;;;;;;;;;6051708;23;20027;-88
2022/10/22 13:05:21;;;;;;;0.85;0.85;;;;;;;;;;6066175;23;20019;-88
2022/10/22 13:07:51;;;;;;;2.08;1.98;;;;;;;;;;6067021;23;20023;-88
2022/10/22 13:10:31;;;;;;;3.00;2.72;;;;;;;;;;6017053;23;20070;-88
2022/10/22 13:13:34;;;;;;;;;;;;;;;;;;;;;
2022/10/22 13:16:05;;;;;;;;;;;;;;;;;;6016887;23;20116;-87
2022/10/22 13:18:36;;;;;;;2.47;1.58;;;;;;;;;;6025242;23;19924;-88
2022/10/22 13:21:20;;;;;;;5.40;1.10;;;;;;;;;;6042233;23;20023;-88
2022/10/22 13:23:55;;;;;;;0.95;0.95;;;;;;;;;;6019021;23;20022;-88
2022/10/22 13:27:07;;;;;;;4.15;2.85;;;;;;;;;;6074017;23;20019;-88
2022/10/22 13:29:37;;;;;;;4.55;0.93;;;;;;;;;;6072226;23;20465;-88
2022/10/22 13:32:06;;;;;;;;;;;;;;;;;;6070715;23;20454;-88
2022/10/22 13:34:35;;;;;;;1.15;0.90;;;;;;;;;;6073741;23;19937;-87
2022/10/22 13:37:14;;;;;;;1.25;0.82;;;;;;;;;;6030184;23;20015;-89
2022/10/22 13:39:42;;;;;;;1.70;1.52;;;;;;;;;;6009565;23;20027;-88
2022/10/22 13:42:19;;;;;;;4.97;1.65;;;;;;;;;;6067379;23;20022;-87
2022/10/22 13:44:47;;;;;;;1.05;0.98;;;;;;;;;;6079683;23;20019;-88
2022/10/22 13:47:41;;;;;;;2.80;1.52;;;;;;;;;;6057414;23;20027;-88
2022/10/22 13:50:13;;;;;;;1.40;1.33;;;;;;;;;;6020855;23;20022;-88
2022/10/22 13:52:58;;;;;;;1.40;1.30;;;;;;;;;;6072943;23;20458;-88
2022/10/22 13:55:33;;;;;;;9.43;3.40;;;;;;;;;;6101868;23;20019;-87
2022/10/22 13:58:16;;;;;;;9.32;7.82;;;;;;;;;;6081446;23;20025;-87
2022/10/22 14:00:56;;;;;;;3.38;2.33;;;;;;;;;;6068306;23;20015;-88
2022/10/22 14:03:34;;;;;;;6.95;4.20;;;;;;;;;;6048077;23;20443;-87
2022/10/22 14:06:02;;;;;;;4.10;2.85;;;;;;;;;;6019446;23;20019;-89
2022/10/22 14:08:31;;;;;;;1.92;1.80;;;;;;;;;;6043922;23;20022;-89
2022/10/22 14:11:04;;;;;;;1.40;1.30;;;;;;;;;;6066737;23;20015;-89
2022/10/22 14:13:33;;;;;;;2.63;1.85;;;;;;;;;;6079359;23;20308;-88
2022/10/22 14:16:07;;;;;;;2.40;2.17;;;;;;;;;;6044394;23;20027;-88
2022/10/22 14:18:36;;;;;;;4.40;2.47;;;;;;;;;;6043885;23;20027;-88
2022/10/22 14:21:10;;;;;;;2.13;1.95;;;;;;;;;;6045280;23;20778;-88
2022/10/22 14:23:44;;;;;;;2.80;1.75;;;;;;;;;;6007075;23;20367;-88
2022/10/22 14:26:55;;;;;;;2.70;1.67;;;;;;;;;;6019365;23;20015;-87
2022/10/22 14:29:23;;;;;;;1.70;1.52;;;;;;;;;;6020462;23;20014;-87
2022/10/22 14:31:50;;;;;;;1.67;1.58;;;;;;;;;;6070761;23;20019;-87
2022/10/22 14:34:18;;;;;;;3.28;1.40;;;;;;;;;;6043295;23;20343;-87
2022/10/22 14:36:46;;;;;;;6.07;2.58;;;;;;;;;;6029408;23;20014;-88
2022/10/22 14:39:14;;;;;;;2.65;1.60;;;;;;;;;;6048392;23;20023;-87
2022/10/22 14:41:43;;;;;;;1.85;1.75;;;;;;;;;;6078657;23;20034;-88
2022/10/22 14:44:15;;;;;;;7.65;4.07;;;;;;;;;;6068191;23;20023;-88
2022/10/22 14:46:43;;;;;;;5.68;2.03;;;;;;;;;;6042336;23;20463;-88
2022/10/22 14:49:11;;;;;;;2.35;2.15;;;;;;;;;;6043887;23;20015;-88
2022/10/22 14:51:42;;;;;;;1.23;1.13;;;;;;;;;;6006291;23;20027;-88
2022/10/22 14:54:11;;;;;;;2.55;1.77;;;;;;;;;;6077545;23;20026;-88
2022/10/22 14:57:13;;;;;;;2.72;1.88;;;;;;;;;;6065766;23;20026;-87
2022/10/22 14:59:43;;;;;;;5.93;1.70;;;;;;;;;;6043492;23;20339;-88
2022/10/22 15:02:13;;;;;;;2.92;1.88;;;;;;;;;;6067318;23;20023;-88
2022/10/22 15:04:49;;;;;;;1.95;1.75;;;;;;;;;;6073769;23;20420;-88
2022/10/22 15:07:17;;;;;;;1.13;1.05;;;;;;;;;;6066145;23;20473;-88
2022/10/22 15:09:45;;;;;;;1.60;1.45;;;;;;;;;;6067834;23;20019;-88
2022/10/22 15:12:16;;;;;;;3.15;1.73;;;;;;;;;;6067831;23;20023;-88
2022/10/22 15:14:44;;;;;;;7.43;1.63;;;;;;;;;;6075362;23;20038;-88
2022/10/22 15:17:15;;;;;;;3.05;2.63;;;;;;;;;;6100964;23;20018;-87
2022/10/22 15:19:43;;;;;;;2.85;1.48;;;;;;;;;;6066957;23;20022;-88
2022/10/22 15:22:12;;;;;;;2.60;1.85;;;;;;;;;;6077276;23;20019;-89
2022/10/22 15:24:47;;;;;;;5.00;1.55;;;;;;;;;;6091738;23;20025;-88
2022/10/22 15:27:15;;;;;;;1.70;1.60;;;;;;;;;;6090245;23;20027;-88
2022/10/22 15:29:43;;;;;;;2.38;1.88;;;;;;;;;;6043952;23;20339;-87
2022/10/22 15:32:13;;;;;;;2.25;1.77;;;;;;;;;;6066825;23;20462;-87
2022/10/22 15:34:41;;;;;;;2.63;2.40;;;;;;;;;;6075321;23;20014;-87
2022/10/22 15:37:10;;;;;;;1.92;1.80;;;;;;;;;;6090892;23;20023;-88
2022/10/22 15:39:41;;;;;;;33.05;5.60;;;;;;;;;;6094001;23;20030;-88
2022/10/22 15:42:09;;;;;;;2.22;1.60;;;;;;;;;;6051650;23;20030;-88
2022/10/22 15:44:38;;;;;;;4.53;2.67;;;;;;;;;;6076853;23;20707;-88
2022/10/22 15:47:07;;;;;;;1.92;1.58;;;;;;;;;;6063200;23;20015;-88
2022/10/22 15:49:43;;;;;;;2.65;1.45;;;;;;;;;;6077386;23;20331;-88
2022/10/22 15:52:14;;;;;;;2.33;1.27;;;;;;;;;;6042140;23;20786;-88
2022/10/22 15:54:57;;;;;;;4.60;1.80;;;;;;;;;;6066065;23;20022;-89
2022/10/22 15:57:24;;;;;;;1.73;1.60;;;;;;;;;;6075944;23;20015;-88
2022/10/22 15:59:58;;;;;;;1.35;1.10;;;;;;;;;;6068644;23;20042;-88
2022/10/22 16:02:28;;;;;;;10.70;3.55;;;;;;;;;;6074161;23;20466;-88
2022/10/22 16:04:57;;;;;;;1.30;1.20;;;;;;;;;;6076570;23;20030;-88
2022/10/22 16:07:26;;;;;;;1.55;1.45;;;;;;;;;;6042053;23;20022;-89
2022/10/22 16:10:00;;;;;;;4.10;1.80;;;;;;;;;;6078353;23;20015;-88
2022/10/22 16:12:28;;;;;;;1.60;1.50;;;;;;;;;;6041993;23;20329;-88
2022/10/22 16:14:58;;;;;;;4.47;1.80;;;;;;;;;;6085359;23;20019;-88
2022/10/22 16:17:28;;;;;;;1.30;1.20;;;;;;;;;;6071518;23;20022;-89
2022/10/22 16:19:59;;;;;;;3.08;1.55;;;;;;;;;;6071577;23;20765;-88
2022/10/22 16:22:27;;;;;;;3.10;1.27;;;;;;;;;;6046988;23;20025;-88
2022/10/22 16:25:27;;;;;;;6.68;1.90;;;;;;;;;;6049181;23;20020;-88
2022/10/22 16:27:54;;;;;;;4.15;2.10;;;;;;;;;;6012721;23;20351;-88
2022/10/22 16:30:22;;;;;;;3.17;2.25;;;;;;;;;;6045941;23;20023;-87
2022/10/22 16:32:52;;;;;;;4.28;2.70;;;;;;;;;;6048235;23;20026;-87
2022/10/22 16:35:20;;;;;;;2.73;1.10;;;;;;;;;;6041208;23;20486;-88
2022/10/22 16:37:49;;;;;;;6.70;1.92;;;;;;;;;;6048740;23;20015;-87
2022/10/22 16:40:17;;;;;;;2.03;1.88;;;;;;;;;;6037082;23;20356;-87
2022/10/22 16:42:50;;;;;;;10.43;2.08;;;;;;;;;;5988943;23;20020;-88
2022/10/22 16:45:22;;;;;;;1.92;1.83;;;;;;;;;;6048934;23;20038;-90
2022/10/22 16:47:51;;;;;;;1.42;1.33;;;;;;;;;;6040126;23;20363;-90
2022/10/22 16:50:36;;;;;;;2.58;2.28;;;;;;;;;;6048900;23;20022;-89
2022/10/22 16:53:04;;;;;;;3.53;2.35;;;;;;;;;;6049298;23;20011;-88
2022/10/22 16:56:09;;;;;;;1.50;1.23;;;;;;;;;;6044688;23;20027;-91
2022/10/22 16:58:37;;;;;;;5.53;2.85;;;;;;;;;;5999715;23;20455;-88
2022/10/22 17:01:06;;;;;;;2.58;1.52;;;;;;;;;;6023108;23;20021;-88
2022/10/22 17:03:34;;;;;;;1.90;1.80;;;;;;;;;;5979538;23;20026;-87
2022/10/22 17:06:07;;;;;;;1.95;1.75;;;;;;;;;;6000020;23;20026;-88
2022/10/22 17:08:38;;;;;;;2.28;2.10;;;;;;;;;;6047686;23;20026;-92
2022/10/22 17:11:28;;;;;;;2.85;2.53;;;;;;;;;;6014215;23;20463;-90
2022/10/22 17:13:59;;;;;;;3.58;2.50;;;;;;;;;;6048061;23;20011;-87
2022/10/22 17:16:27;;;;;;;3.70;2.72;;;;;;;;;;6038402;23;20026;-88
2022/10/22 17:18:56;;;;;;;3.03;2.72;;;;;;;;;;6044966;23;20028;-91
2022/10/22 17:21:41;;;;;;;7.65;2.88;;;;;;;;;;6001515;23;20038;-87
2022/10/22 17:24:21;;;;;;;2.88;2.65;;;;;;;;;;5992449;23;20023;-91
2022/10/22 17:27:21;;;;;;;3.53;1.92;;;;;;;;;;6024152;23;20019;-87
2022/10/22 17:29:52;;;;;;;;;;;;;;;;;;5991210;23;20081;-89
2022/10/22 17:32:28;;;;;;;2.53;2.33;;;;;;;;;;5967757;23;19918;-92
2022/10/22 17:35:00;;;;;;;2.20;1.60;;;;;;;;;;6020225;23;20482;-91
2022/10/22 17:37:36;;;;;;;1.60;1.50;;;;;;;;;;6014113;23;20019;-90
2022/10/22 17:40:22;;;;;;;5.38;2.50;;;;;;;;;;5993933;23;20027;-90
2022/10/22 17:42:52;;;;;;;24.27;7.35;;;;;;;;;;5990488;23;20078;-91
2022/10/22 17:45:24;;;;;;;2.47;1.80;;;;;;;;;;6024283;23;20015;-90
2022/10/22 17:47:56;;;;;;;3.85;1.90;;;;;;;;;;5990681;23;20348;-92
2022/10/22 17:50:30;;;;;;;5.40;2.63;;;;;;;;;;6014142;23;20024;-90
2022/10/22 17:52:58;;;;;;;3.75;3.33;;;;;;;;;;6014476;23;20016;-91
2022/10/22 17:55:33;;;;;;;2.63;2.35;;;;;;;;;;6012910;23;20042;-90
2022/10/22 17:58:03;;;;;;;2.40;2.20;;;;;;;;;;5976540;23;20027;-90
2022/10/22 18:00:32;;;;;;;7.90;2.85;;;;;;;;;;5990584;23;20468;-91
2022/10/22 18:03:08;;;;;;;27.13;8.73;;;;;;;;;;5991564;23;20019;-91
2022/10/22 18:05:39;;;;;;;13.77;5.13;;;;;;;;;;5967619;23;20764;-91
2022/10/22 18:08:08;;;;;;;10.65;5.00;;;;;;;;;;5990785;23;20023;-91
2022/10/22 18:10:40;;;;;;;9.65;5.97;;;;;;;;;;6022676;23;20016;-91
2022/10/22 18:13:12;;;;;;;22.58;7.93;;;;;;;;;;6050584;23;20019;-90
2022/10/22 18:15:40;;;;;;;27.42;5.93;;;;;;;;;;6015529;23;20034;-90
2022/10/22 18:18:20;;;;;;;144.73;28.40;;;;;;;;;;5993872;23;20324;-91
2022/10/22 18:20:59;;;;;;;40.42;14.27;;;;;;;;;;5992596;23;20027;-92
2022/10/22 18:23:39;;;;;;;60.03;14.23;;;;;;;;;;5995954;23;20027;-91
2022/10/22 18:26:19;;;;;;;23.60;5.07;;;;;;;;;;6046267;23;20018;-90
2022/10/22 18:29:06;;;;;;;;;;;;;;;;;;;;;
2022/10/22 18:31:36;;;;;;;17.88;5.90;;;;;;;;;;5986502;23;20020;-90
2022/10/22 18:34:04;;;;;;;27.17;9.38;;;;;;;;;;5934584;23;20020;-93
2022/10/22 18:36:33;;;;;;;38.03;13.45;;;;;;;;;;5934703;24;20028;-93
2022/10/22 18:39:06;;;;;;;73.47;12.93;;;;;;;;;;5934752;24;20028;-89
2022/10/22 18:41:36;;;;;;;37.70;6.10;;;;;;;;;;5935856;24;20024;-93
2022/10/22 18:44:05;;;;;;;31.45;8.32;;;;;;;;;;5935531;24;20032;-90
2022/10/22 18:46:37;;;;;;;26.83;8.07;;;;;;;;;;5934420;24;20024;-91
2022/10/22 18:49:10;;;;;;;4.15;3.75;;;;;;;;;;5935408;24;20360;-91
2022/10/22 18:51:38;;;;;;;44.90;9.07;;;;;;;;;;5934987;24;20355;-90
2022/10/22 18:54:10;;;;;;;75.30;15.25;;;;;;;;;;5935024;23;20317;-92
2022/10/22 18:56:57;;;;;;;17.50;6.22;;;;;;;;;;5979324;23;20023;-92
2022/10/22 18:59:29;;;;;;;7.43;6.03;;;;;;;;;;5990842;23;20023;-91
2022/10/22 19:01:58;;;;;;;30.73;10.18;;;;;;;;;;5992504;23;20436;-91
2022/10/22 19:04:31;;;;;;;6.53;3.80;;;;;;;;;;6043315;23;20022;-91
2022/10/22 19:07:00;;;;;;;4.53;4.13;;;;;;;;;;6019169;23;20039;-91
2022/10/22 19:09:28;;;;;;;45.40;9.57;;;;;;;;;;6019214;23;20023;-90
2022/10/22 19:11:58;;;;;;;33.28;8.23;;;;;;;;;;5996956;23;20031;-91
2022/10/22 19:14:26;;;;;;;17.98;7.13;;;;;;;;;;5991853;23;20019;-92
2022/10/22 19:16:56;;;;;;;30.17;8.00;;;;;;;;;;5991890;23;20440;-91
2022/10/22 19:19:24;;;;;;;9.30;5.35;;;;;;;;;;6016992;23;20027;-92
2022/10/22 19:21:55;;;;;;;9.52;5.55;;;;;;;;;;6021870;23;20039;-91
2022/10/22 19:24:38;;;;;;;6.05;5.10;;;;;;;;;;6038920;23;20030;-92
2022/10/22 19:27:07;;;;;;;2.93;2.73;;;;;;;;;;5990936;23;20031;-92
2022/10/22 19:29:37;;;;;;;5.20;2.53;;;;;;;;;;6026068;23;20335;-92
2022/10/22 19:32:08;;;;;;;3.63;3.05;;;;;;;;;;5990940;23;20035;-92
2022/10/22 19:34:43;;;;;;;3.05;2.85;;;;;;;;;;5991207;23;20023;-91
2022/10/22 19:37:16;;;;;;;;;;;;;;;;;;6038891;23;20023;-92
2022/10/22 19:39:44;;;;;;;15.13;2.80;;;;;;;;;;6058924;23;20350;-91
2022/10/22 19:42:15;;;;;;;5.22;2.55;;;;;;;;;;6016379;23;20030;-91
2022/10/22 19:44:46;;;;;;;33.53;6.80;;;;;;;;;;5991859;23;20030;-92
2022/10/22 19:47:14;;;;;;;5.70;5.22;;;;;;;;;;6019684;23;20046;-92
2022/10/22 19:49:42;;;;;;;6.00;3.95;;;;;;;;;;5992238;23;20023;-91
2022/10/22 19:52:10;;;;;;;25.85;6.97;;;;;;;;;;5991001;23;20034;-91
2022/10/22 19:55:16;;;;;;;10.00;7.03;;;;;;;;;;6021532;23;20027;-91
2022/10/22 19:57:44;;;;;;;2.58;2.42;;;;;;;;;;6021377;23;20671;-90
2022/10/22 20:00:30;;;;;;;7.75;4.18;;;;;;;;;;6014906;23;20031;-91
2022/10/22 20:03:20;;;;;;;;;;;;;;;;;;;;;
